Ride Results

Gulgong Gold Rush (03-09-2006)
Ride distance: 80.0 km

Outcomes - Gulgong Gold Rush (03-09-2006)
Division No. of Entries Retired / DNE Completed Withdrawn Ineligible V/O Percentage Completed
HW 21 - 16 - - 5 76.19%
MW 27 - 20 - - 7 74.07%
LW 12 - 10 - - 2 83.33%
JN 5 - 4 - - 1 80.00%
Totals 65 - 50 - - 15 76.92%
Results - Gulgong Gold Rush (03-09-2006)
No. Rider Horse Place Time Leg Speeds Total
Km/Hr
H/R bpm
Heavyweight
98 Marty Gregson Aloha Kaiser 1 4:11:00 21.2, 17.3 19.12 29, 38, 40 (Avg:39)
100 Gavin Groth Gambler 2 4:28:00 19.1, 16.7 17.91 26, 40, 40 (Avg:40)
96 Len Derkacz Torryburn Rahal 3 4:33:00 18.8, 16.4 17.58 36, 38, 48 (Avg:43)
89 Rod Mitchell Aloha Naja 4 5:23:00 16.1, 13.7 14.86 30, 36, 42 (Avg:39)
93 Jason Duff Judeesia Splash 5 5:25:00 16.2, 13.5 14.77 34, 38, 44 (Avg:41)
87 Charles Gauci Overdale Farm Zarisa 6 6:04:00 13.1, 13.2 13.19 34, 38, 42 (Avg:40)
94 Greg Moore Parkview Armageddon 6 6:04:00 13.1, 13.2 13.19 36, 42, 48 (Avg:45)
104 Paddy Smith Nurelee Talisman 8 6:10:00 13.0, 12.9 12.97 44, 37, 50 (Avg:43)
91 Helen Cameron Karabil Tagera 9 6:24:00 13.3, 11.7 12.50 32, 39, 46 (Avg:42)
46 Frank Mollema Blackwood Springs Rhapsody 10 6:36:00 13.1, 11.2 12.12 32, 41, 42 (Avg:41)
65 Bruce Thornton Coco 11 6:38:00 11.1, 13.1 12.06 36, 40, 46 (Avg:43)
83 Dallas Blakely Princess Moniet 12 6:59:00 12.2, 10.7 11.46 36, 36, 42 (Avg:39)
102 Alan Mackinder Devi 13 7:10:00 11.9, 10.4 11.16 36, 39, 44 (Avg:41)
84 Casey Smith Tuldar Regal Reggie 14 7:39:00 12.0, 9.2 10.46 38, 46, 46 (Avg:46)
95 Eric Cauchi Kriya 15 7:53:00 11.2, 9.2 10.15 32, 50, 48 (Avg:49)
99 Con Bouzianis Conderosa Silver 16 8:00:00 11.1, 9.0 10.00 42, 30, 42 (Avg:36)
68 Peter Bonham Box Hill Rogan Josh Lame L2 0:00:00 13.0, 12.9 - 36, 40, 44 (Avg:42)
105 Damien Bonham Box Hill Jezabel Lame L2 0:00:00 16.7, 18.4 - 33, 44, 53 (Avg:48)
85 Bern Harvey Velona Sinttara Lame L2 0:00:00 22.0, 20.5 - 27, 38, 48 (Avg:43)
82 Tom Perkins Snr Espirit Sangriah Lame L2 0:00:00 11.1, 9.3 - 36, 44, 52 (Avg:48)
51 Sue Warren Warren Park O.B. One Lame L1 0:00:00 11.9 - 33, 40 (Avg:40)
Middleweight
62 Claudia Reid Ningadoo Taban 1 3:46:00 22.0, 20.5 21.24 31, 35, 44 (Avg:39)
42 Mette Sutton Tuldar The Magician 2 3:51:00 21.8, 19.8 20.78 29, 44, 42 (Avg:43)
43 Renee Kirk Cherox Assassin 3 4:43:00 16.4, 17.5 16.96 34, 44, 54 (Avg:49)
45 Rochelle Knihinicki Tuldar Ronnie 3 4:43:00 16.4, 17.5 16.96 40, 44, 47 (Avg:45)
63 Allison Knihinicki Jade 3 4:43:00 16.4, 17.5 16.96 38, 45, 44 (Avg:44)
55 Neroli Mitchell- Cooper Bilbo 6 5:37:00 16.7, 12.3 14.24 35, 38, 52 (Avg:45)
27 Ruth Van der Wegen Hazeldean Shakla Rose 6 5:37:00 15.0, 13.4 14.24 40, 44, 50 (Avg:47)
47 Luke Harvey Velona Bartez 8 6:10:00 13.0, 12.9 12.97 38, 42, 48 (Avg:45)
69 Kristy Waddell Box Hill Zac 8 6:10:00 14.1, 11.9 12.97 34, 42, 44 (Avg:43)
90 John Robertson Karabil Binyana 10 6:24:00 13.3, 11.7 12.50 35, 44, 46 (Avg:45)
54 James Ryan Brandy 10 6:24:00 13.3, 11.7 12.50 38, 48, 46 (Avg:47)
11 Bernice King Noble Navaar Destiny 12 6:28:00 14.1, 11.0 12.37 31, 38, 46 (Avg:42)
6 Andrew Blakely A-Landell Major Jepardy 13 6:59:00 12.2, 10.7 11.46 40, 40, 42 (Avg:41)
97 Gaye Withers Sir Bastian 14 7:03:00 12.3, 10.5 11.35 36, 38, 40 (Avg:39)
64 Chris Turnbull Charlie 15 7:06:00 12.3, 10.3 11.27 40, 38, 44 (Avg:41)
66 Naomi Djuric Cedar Ridge Astro 16 7:10:00 11.9, 10.4 11.16 34, 41, 45 (Avg:43)
61 Victoria Bonham Calypso Jessica 17 7:23:00 11.7, 10.0 10.84 30, 40, 44 (Avg:42)
60 Chris Noonan Bondura Jackpot 17 7:23:00 11.7, 10.0 10.84 33, 36, 52 (Avg:44)
23 Jas Crafter Tuldar Kosta 19 7:39:00 12.0, 9.2 10.46 36, 40, 37 (Avg:38)
10 Lynn Coles Pinedene Robbie 20 7:40:00 12.4, 8.9 10.43 38, 48, 44 (Avg:46)
18 Pat Dickinson Noble Navaar Crystal Rose Lame L2 0:00:00 11.6, 8.7 - 36, 34, 44 (Avg:39)
12 Carol Griffiths Oak-Glen Isis Lame L2 0:00:00 12.2, 10.7 - 34, 42, 46 (Avg:44)
49 Sam Gauci Tarabic Carl Lame L1 0:00:00 13.0 - 40, 39 (Avg:39)
48 Lee-Anne Gauci Tapeeka Trick or Treat Lame L1 0:00:00 13.1 - 31, 42 (Avg:42)
56 Peter Kelly Wollumbin Faiz Lame L1 0:00:00 16.3 - 32, 39 (Avg:39)
70 Patricia Waddell Box Hill Glider Lame L1 0:00:00 20.3 - 0, 50 (Avg:50)
3 Brett Willis One Eye Quintex Lame L1 0:00:00 13.7 - 0, 36 (Avg:36)
Lightweight
7 Gloria Mills Glendos Sabodie 1 3:46:00 22.0, 20.5 21.24 36, 40, 48 (Avg:44)
30 Kate Pilley Pancho 2 4:28:00 22.0, 15.0 17.91 32, 40, 40 (Avg:40)
13 Lee Duff Aloha Ambassador 3 5:25:00 16.2, 13.5 14.77 30, 40, 42 (Avg:41)
50 Robin Gossip Sudan 4 5:51:00 14.8, 12.6 13.68 32, 37, 40 (Avg:38)
32 Dianne Luker Cherox Liquid Crystal 5 6:29:00 12.4, 12.2 12.34 36, 36, 34 (Avg:35)
33 Pam Markham Junack Octavia 6 7:04:00 11.9, 10.7 11.32 34, 42, 48 (Avg:45)
29 Sonya Nicholls Worobil Koradji 6 7:04:00 12.4, 10.3 11.32 30, 36, 38 (Avg:37)
21 Kate Campbell Cagiva 8 7:06:00 12.3, 10.3 11.27 36, 42, 44 (Avg:43)
4 Linda Logan Follydown Topaz 9 7:25:00 11.9, 9.7 10.79 34, 42, 52 (Avg:47)
22 Debbie Pevy Conderosa Harley 10 8:00:00 11.1, 9.0 10.00 35, 48, 55 (Avg:51)
8 Jodi Dewick Wickwood Ibn Hosea Lame L2 0:00:00 13.7, 9.0 - 42, 44, 48 (Avg:46)
19 John Symons Worobil Baringa Lame L2 0:00:00 11.6, 8.7 - 37, 39, 48 (Avg:43)
Junior
9 Sharna Harvey Binks 1 3:46:00 22.0, 20.5 21.24 34, 39, 40 (Avg:39)
71 Christie Chapman Box Hill Tonderburine 2 4:11:00 20.3, 18.0 19.12 38, 46, 45 (Avg:45)
34 Joshua Vandervelden Mindari Quicksilver 3 6:39:00 13.0, 11.1 12.03 36, 48, 53 (Avg:50)
31 Seton Croake Stretch 4 7:25:00 11.9, 9.8 10.79 36, 44, 51 (Avg:47)
5 Jamie Mollema Binks Lame L1 0:00:00 13.1 - 33, 36 (Avg:36)